Main page
METAR-TAF:

METAR-TAF

Airports :

Benbecula, Scotland

Benbecula Airport

latitude: 57-28N, longitude: 007-22W, elevation: 6 m

Current weather observation

The report was made 17 minutes ago, at 23:50 UTC
Wind 20 kt from the South/Southeast
Temperature 14°C
Humidity 88%
Pressure 1009 hPa
Visibility 10 km or more

METAR: EGPL 192350Z AUTO 15020KT 9999 BKN014/// 14/12 Q1009

Time: 01:07 (00:07 UTC)

Forecast

The report was made 10 hours and 8 minutes ago, at 13:59 UTC
Forecast valid from 19 at 15 UTC to 19 at 18 UTC
Wind 15 kt from the South/Southeast
Visibility 10 km or more
Broken clouds at a height of 1500 ft
Temporary
from 19 at 15 UTC to 19 at 18 UTC
Broken clouds at a height of 1200 ft

TAF: EGPL 191359Z 1915/1918 16015KT 9999 BKN015 TEMPO 1915/1918 BKN012

Weather observations and forecasts of more than 4000 airports (METAR and TAF reports).

The available stations are represented by yellow and red dots on the map.

Hover mouse over dot to see the name of the station.

Then click to see weather observations and forecasts.

To change the map : click on the green buttons with a black cross to zoom in, on the green button with a dash to zoom out, or on the green arrows for adjacent maps.


METAR-TAF: